Main page
METAR-TAF:

METAR-TAF

Airports :

Zvartnots International Airport

Yerevan, Armenia

latitude: 40-08-50N, longitude: 044-23-45E, elevation: 865 m

Current weather observation

The report was made 15 minutes ago, at 01:30 UTC
Wind 1 kt from the West/Southwest
Temperature -8°C
Humidity 85%
Pressure 1024 hPa
Visibility: 6000 m

METAR: UDYZ 200130Z 24001KT 6000 NSC M08/M10 Q1024 R09/010070 NOSIG

Time: 05:45 (01:45 UTC)

Forecast

The report was made 2 hours and 40 minutes ago, at 23:05 UTC
Forecast valid from 20 at 00 UTC to 20 at 24 UTC
Wind 4 kt from variable directions
Visibility: 6000 m
Temporary
from 20 at 00 UTC to 20 at 06 UTC
Visibility: 2000 m
mist

TAF: UDYZ 192305Z 2000/2024 VRB04KT 6000 NSC TEMPO 2000/2006 2000 BR

Weather observations and forecasts of more than 4000 airports (METAR and TAF reports).

The available stations are represented by yellow and red dots on the map.

Hover mouse over dot to see the name of the station.

Then click to see weather observations and forecasts.

To change the map : click on the green buttons with a black cross to zoom in, on the green button with a dash to zoom out, or on the green arrows for adjacent maps.


METAR-TAF: